createdAt,value
2017-06-24T00:01:38.017Z,17.53
2017-06-24T00:04:05.585Z,19.30
2017-06-24T00:06:40.557Z,17.03
2017-06-24T00:09:08.124Z,16.87
2017-06-24T00:11:35.742Z,17.33
2017-06-24T00:14:03.264Z,18.47
2017-06-24T00:16:30.817Z,17.07
2017-06-24T00:18:58.332Z,19.73
2017-06-24T00:21:25.844Z,20.43
2017-06-24T00:23:53.416Z,24.03
2017-06-24T00:26:20.951Z,22.50
2017-06-24T00:28:49.151Z,21.90
2017-06-24T00:31:17.622Z,19.20
2017-06-24T00:33:45.206Z,17.13
2017-06-24T00:36:12.739Z,17.77
2017-06-24T00:38:49.565Z,18.20
2017-06-24T00:41:17.246Z,19.53
2017-06-24T00:43:44.781Z,19.73
2017-06-24T00:46:12.349Z,19.93
2017-06-24T00:48:39.877Z,20.40
2017-06-24T00:51:07.428Z,20.43
2017-06-24T00:53:35.050Z,20.80
2017-06-24T00:56:02.646Z,18.70
2017-06-24T00:58:30.169Z,19.13
2017-06-24T01:00:57.722Z,20.60
2017-06-24T01:03:29.042Z,19.33
2017-06-24T01:05:56.559Z,18.40
2017-06-24T01:08:24.087Z,17.20
2017-06-24T01:10:51.620Z,16.73
2017-06-24T01:13:19.523Z,16.47
2017-06-24T01:15:47.092Z,15.77
2017-06-24T01:18:14.662Z,14.67
2017-06-24T01:20:42.282Z,13.60
2017-06-24T01:23:09.986Z,16.10
2017-06-24T01:25:37.584Z,13.90
2017-06-24T01:28:06.392Z,16.40
2017-06-24T01:30:33.917Z,14.00
2017-06-24T01:33:01.698Z,13.83
2017-06-24T01:35:32.655Z,13.90
2017-06-24T01:38:00.156Z,12.60
2017-06-24T01:40:27.674Z,13.93
2017-06-24T01:42:55.598Z,14.57
2017-06-24T01:45:23.489Z,13.60
2017-06-24T01:47:51.020Z,12.77
2017-06-24T01:50:18.624Z,13.50
2017-06-24T01:52:47.286Z,11.80
2017-06-24T01:55:15.112Z,13.70
2017-06-24T01:57:43.430Z,14.03
2017-06-24T02:00:10.954Z,14.33
2017-06-24T02:02:38.462Z,12.70
2017-06-24T02:05:06.018Z,12.73
2017-06-24T02:07:33.546Z,12.30
2017-06-24T02:10:01.062Z,12.73
2017-06-24T02:12:28.613Z,12.80
2017-06-24T02:14:57.650Z,13.30
2017-06-24T02:17:25.184Z,11.67
2017-06-24T02:19:55.861Z,12.37
2017-06-24T02:22:23.366Z,12.03
2017-06-24T02:24:50.872Z,12.53
2017-06-24T02:27:18.489Z,12.57
2017-06-24T02:29:46.001Z,14.13
2017-06-24T02:32:14.135Z,12.70
2017-06-24T02:34:41.704Z,13.60
2017-06-24T02:37:09.215Z,11.90
2017-06-24T02:39:36.715Z,14.23
2017-06-24T02:42:04.548Z,13.20
2017-06-24T02:44:32.061Z,12.10
2017-06-24T02:46:59.590Z,15.73
2017-06-24T02:49:27.121Z,12.67
2017-06-24T02:51:55.904Z,13.83
2017-06-24T02:54:23.429Z,17.30
2017-06-24T02:56:51.029Z,12.13
2017-06-24T02:59:19.822Z,12.83
2017-06-24T03:01:47.645Z,13.70
2017-06-24T03:04:15.184Z,12.00
2017-06-24T03:06:42.750Z,12.40
2017-06-24T03:09:10.273Z,13.70
2017-06-24T03:11:37.832Z,13.73
2017-06-24T03:14:05.347Z,14.30
2017-06-24T03:16:32.866Z,16.00
2017-06-24T03:19:00.428Z,13.27
2017-06-24T03:21:28.010Z,14.87
2017-06-24T03:23:55.534Z,16.40
2017-06-24T03:26:23.951Z,17.50
2017-06-24T03:28:52.258Z,17.63
2017-06-24T03:31:19.773Z,16.30
2017-06-24T03:33:47.308Z,15.20
2017-06-24T03:36:14.879Z,15.03
2017-06-24T03:38:42.402Z,16.17
2017-06-24T03:41:09.973Z,15.90
2017-06-24T03:43:37.506Z,13.90
2017-06-24T03:46:05.629Z,16.50
2017-06-24T03:48:33.201Z,20.80
2017-06-24T03:51:00.721Z,19.80
2017-06-24T03:53:28.243Z,16.80
2017-06-24T03:55:56.895Z,25.10
2017-06-24T03:58:24.482Z,18.90
2017-06-24T04:00:52.839Z,19.00
2017-06-24T04:03:21.251Z,15.83
2017-06-24T04:05:48.845Z,17.27
2017-06-24T04:08:16.381Z,18.07
2017-06-24T04:10:44.071Z,18.77
2017-06-24T04:13:11.582Z,23.43
2017-06-24T04:15:40.975Z,16.83
2017-06-24T04:18:08.585Z,22.13
2017-06-24T04:20:36.099Z,18.57
2017-06-24T04:23:03.711Z,15.30
2017-06-24T04:25:31.820Z,15.97
2017-06-24T04:27:59.709Z,18.00
2017-06-24T04:30:28.732Z,14.90
2017-06-24T04:32:56.252Z,16.83
2017-06-24T04:35:24.228Z,17.37
2017-06-24T04:37:51.776Z,20.73
2017-06-24T04:40:19.321Z,17.40
2017-06-24T04:42:46.848Z,16.63
2017-06-24T04:45:15.048Z,16.13
2017-06-24T04:47:42.618Z,16.53
2017-06-24T04:50:10.499Z,15.40
2017-06-24T04:52:39.831Z,16.50
2017-06-24T04:55:07.408Z,15.47
2017-06-24T04:57:36.629Z,15.27
2017-06-24T05:00:09.034Z,16.90
2017-06-24T05:02:37.359Z,14.47
2017-06-24T05:05:04.982Z,14.50
2017-06-24T05:07:32.588Z,12.93
2017-06-24T05:10:00.209Z,15.43
2017-06-24T05:12:27.799Z,14.23
2017-06-24T05:14:55.426Z,16.60
2017-06-24T05:17:23.030Z,16.53
2017-06-24T05:19:50.791Z,12.77
2017-06-24T05:22:19.127Z,13.20
2017-06-24T05:24:46.751Z,12.67
2017-06-24T05:27:16.210Z,12.97
2017-06-24T05:29:43.822Z,15.83
2017-06-24T05:32:12.621Z,11.83
2017-06-24T05:34:40.866Z,14.23
2017-06-24T05:37:08.477Z,11.37
2017-06-24T05:39:35.991Z,14.17
2017-06-24T05:42:03.585Z,19.30
2017-06-24T05:44:46.554Z,28.20
2017-06-24T05:47:14.141Z,12.30
2017-06-24T05:49:41.667Z,12.27
2017-06-24T05:52:10.090Z,12.23
2017-06-24T05:54:37.621Z,13.47
2017-06-24T05:57:05.385Z,13.10
2017-06-24T05:59:32.957Z,12.27
2017-06-24T06:02:00.757Z,12.50
2017-06-24T06:04:28.359Z,11.97
2017-06-24T06:06:56.808Z,22.60
2017-06-24T06:09:24.351Z,10.90
2017-06-24T06:11:52.255Z,12.30
2017-06-24T06:14:19.939Z,16.83
2017-06-24T06:16:47.649Z,14.57
2017-06-24T06:19:15.761Z,12.23
2017-06-24T06:21:43.317Z,11.40
2017-06-24T06:24:10.833Z,16.27
2017-06-24T06:26:38.354Z,12.27
2017-06-24T06:29:07.062Z,14.70
2017-06-24T06:31:34.910Z,14.93
2017-06-24T06:34:03.994Z,12.93
2017-06-24T06:36:32.377Z,13.20
2017-06-24T06:38:59.971Z,10.83
2017-06-24T06:41:27.810Z,14.30
2017-06-24T06:44:03.180Z,12.73
2017-06-24T06:46:31.840Z,11.13
2017-06-24T06:48:59.389Z,11.17
2017-06-24T06:51:29.008Z,10.50
2017-06-24T06:54:00.799Z,11.10
2017-06-24T06:56:28.543Z,11.27
2017-06-24T06:58:56.143Z,10.33
2017-06-24T07:01:25.829Z,11.43
2017-06-24T07:03:54.263Z,11.50
2017-06-24T07:06:21.853Z,9.93
2017-06-24T07:08:50.382Z,11.30
2017-06-24T07:11:25.796Z,11.73
2017-06-24T07:13:53.306Z,9.53
2017-06-24T07:16:25.463Z,10.90
2017-06-24T07:19:02.100Z,10.50
2017-06-24T07:21:30.410Z,9.90
2017-06-24T07:23:57.968Z,8.63
2017-06-24T07:26:26.789Z,9.70
2017-06-24T07:28:54.339Z,11.23
2017-06-24T07:31:21.866Z,14.53
2017-06-24T07:33:57.355Z,10.93
2017-06-24T07:36:32.127Z,9.97
2017-06-24T07:39:02.909Z,12.57
2017-06-24T07:41:31.056Z,10.50
2017-06-24T07:44:08.126Z,14.73
2017-06-24T07:46:37.407Z,12.73
2017-06-24T07:49:13.188Z,11.13
2017-06-24T07:51:40.846Z,9.17
2017-06-24T07:54:08.843Z,9.67
2017-06-24T07:56:36.498Z,11.27
2017-06-24T07:59:04.130Z,10.83
2017-06-24T08:01:31.704Z,11.60
2017-06-24T08:03:59.472Z,10.93
2017-06-24T08:06:28.351Z,8.10
2017-06-24T08:08:56.433Z,10.30
2017-06-24T08:11:26.880Z,11.47
2017-06-24T08:13:54.614Z,7.53
2017-06-24T08:16:23.016Z,9.73
2017-06-24T08:18:52.480Z,13.10
2017-06-24T08:21:21.278Z,10.43
2017-06-24T08:24:02.445Z,8.53
2017-06-24T08:26:30.157Z,8.90
2017-06-24T08:29:00.905Z,8.20
2017-06-24T08:31:38.526Z,7.83
2017-06-24T08:34:11.054Z,7.87
2017-06-24T08:36:41.403Z,9.20
2017-06-24T08:39:25.686Z,8.27
2017-06-24T08:41:54.485Z,6.93
2017-06-24T08:44:24.509Z,5.80
2017-06-24T08:46:54.635Z,7.03
2017-06-24T08:49:27.421Z,9.07
2017-06-24T08:51:55.133Z,6.07
2017-06-24T08:54:24.593Z,7.17
2017-06-24T08:56:53.515Z,7.00
2017-06-24T08:59:21.781Z,5.60
2017-06-24T09:01:49.367Z,5.50
2017-06-24T09:04:16.909Z,7.57
2017-06-24T09:09:20.413Z,6.47
2017-06-24T09:11:57.134Z,5.60
2017-06-24T09:14:41.873Z,5.47
2017-06-24T09:17:10.210Z,5.60
2017-06-24T09:19:38.208Z,9.47
2017-06-24T09:24:41.643Z,6.20
2017-06-24T09:27:33.425Z,7.37
2017-06-24T09:30:01.484Z,6.27
2017-06-24T09:32:30.015Z,7.50
2017-06-24T09:34:59.808Z,4.97
2017-06-24T09:37:27.365Z,5.90
2017-06-24T09:39:54.971Z,5.53
2017-06-24T09:42:25.117Z,5.60
2017-06-24T09:45:00.572Z,5.03
2017-06-24T09:47:29.224Z,5.40
2017-06-24T09:50:01.253Z,6.17
2017-06-24T09:52:33.023Z,5.40
2017-06-24T09:55:00.641Z,7.40
2017-06-24T09:57:32.051Z,9.63
2017-06-24T10:00:01.292Z,5.63
2017-06-24T10:02:28.852Z,6.20
2017-06-24T10:04:57.430Z,7.93
2017-06-24T10:07:24.942Z,10.60
2017-06-24T10:09:52.473Z,9.70
2017-06-24T10:12:20.087Z,12.33
2017-06-24T10:14:56.838Z,5.30
2017-06-24T10:17:25.525Z,11.20
2017-06-24T10:19:53.484Z,7.40
2017-06-24T10:22:21.954Z,7.63
2017-06-24T10:24:49.556Z,6.30
2017-06-24T10:27:18.298Z,6.87
2017-06-24T10:29:53.662Z,8.73
2017-06-24T10:32:21.286Z,13.13
2017-06-24T10:34:52.717Z,7.83
2017-06-24T10:37:22.722Z,7.17
2017-06-24T10:39:51.731Z,8.03
2017-06-24T10:42:39.871Z,6.70
2017-06-24T10:45:07.594Z,6.07
2017-06-24T10:47:42.154Z,5.97
2017-06-24T10:50:11.574Z,8.40
2017-06-24T10:52:39.130Z,7.03
2017-06-24T10:55:10.006Z,9.40
2017-06-24T10:57:55.571Z,8.53
2017-06-24T11:00:31.957Z,8.13
2017-06-24T11:03:00.543Z,7.13
2017-06-24T11:05:43.293Z,7.40
2017-06-24T11:08:20.299Z,10.10
2017-06-24T11:10:47.854Z,8.70
2017-06-24T11:13:15.728Z,10.43
2017-06-24T11:15:43.996Z,7.70
2017-06-24T11:18:23.425Z,8.20
2017-06-24T11:21:04.461Z,10.63
2017-06-24T11:23:32.113Z,9.20
2017-06-24T11:26:07.741Z,8.37
2017-06-24T11:28:35.363Z,8.30
2017-06-24T11:31:18.082Z,36.53
2017-06-24T11:33:49.812Z,13.10
2017-06-24T11:36:25.907Z,12.80
2017-06-24T11:38:55.821Z,15.70
2017-06-24T11:41:23.398Z,10.07
2017-06-24T11:43:58.317Z,10.87
2017-06-24T11:46:26.055Z,10.53
2017-06-24T11:48:54.466Z,9.37
2017-06-24T11:51:22.703Z,10.10
2017-06-24T11:53:50.356Z,6.57
2017-06-24T11:56:18.595Z,7.43
2017-06-24T11:58:46.162Z,9.63
2017-06-24T12:01:15.621Z,6.10
2017-06-24T12:03:43.987Z,7.90
2017-06-24T12:06:11.566Z,8.97
2017-06-24T12:08:42.119Z,7.60
2017-06-24T12:11:14.203Z,9.20
2017-06-24T12:13:41.774Z,7.10
2017-06-24T12:16:09.331Z,6.77
2017-06-24T12:18:44.440Z,7.63
2017-06-24T12:21:13.432Z,6.77
2017-06-24T12:23:41.061Z,7.00
2017-06-24T12:26:17.643Z,9.70
2017-06-24T12:28:45.869Z,7.40
2017-06-24T12:31:25.399Z,7.03
2017-06-24T12:33:56.439Z,6.33
2017-06-24T12:36:28.543Z,10.53
2017-06-24T12:38:58.195Z,6.93
2017-06-24T12:41:27.341Z,11.93
2017-06-24T12:43:56.136Z,6.27
2017-06-24T12:46:25.474Z,6.20
2017-06-24T12:48:53.090Z,7.63
2017-06-24T12:51:27.772Z,8.17
2017-06-24T12:53:57.224Z,6.90
2017-06-24T12:56:25.844Z,6.50
2017-06-24T12:58:54.378Z,8.13
2017-06-24T13:01:23.608Z,7.10
2017-06-24T13:03:57.482Z,7.93
2017-06-24T13:06:26.094Z,8.53
2017-06-24T13:09:01.189Z,7.70
2017-06-24T13:11:31.354Z,8.40
2017-06-24T13:13:58.889Z,6.27
2017-06-24T13:16:26.638Z,6.37
2017-06-24T13:19:10.000Z,6.13
2017-06-24T13:21:37.518Z,10.47
2017-06-24T13:24:05.305Z,8.37
2017-06-24T13:26:36.113Z,6.77
2017-06-24T13:29:10.615Z,8.27
2017-06-24T13:31:41.387Z,7.90
2017-06-24T13:34:10.142Z,7.57
2017-06-24T13:36:37.883Z,5.93
2017-06-24T13:39:15.003Z,7.63
2017-06-24T13:41:42.555Z,6.50
2017-06-24T13:44:19.891Z,6.40
2017-06-24T13:46:58.849Z,8.50
2017-06-24T13:49:26.417Z,5.90
2017-06-24T13:51:53.958Z,7.13
2017-06-24T13:54:25.391Z,6.63
2017-06-24T13:56:52.954Z,7.70
2017-06-24T13:59:21.183Z,6.93
2017-06-24T14:01:57.876Z,6.73
2017-06-24T14:04:26.102Z,8.27
2017-06-24T14:07:08.871Z,6.60
2017-06-24T14:09:36.398Z,7.97
2017-06-24T14:12:04.177Z,7.27
2017-06-24T14:14:39.040Z,10.17
2017-06-24T14:17:10.664Z,7.03
2017-06-24T14:19:38.745Z,7.30
2017-06-24T14:22:06.291Z,6.97
2017-06-24T14:24:41.959Z,6.53
2017-06-24T14:27:11.425Z,6.87
2017-06-24T14:29:39.184Z,7.87
2017-06-24T14:32:23.268Z,8.80
2017-06-24T14:35:09.281Z,8.53
2017-06-24T14:37:53.844Z,6.50
2017-06-24T14:40:25.209Z,7.40
2017-06-24T14:42:53.747Z,6.83
2017-06-24T14:45:29.803Z,6.53
2017-06-24T14:47:57.310Z,6.70
2017-06-24T14:50:26.100Z,6.80
2017-06-24T14:52:54.746Z,9.90
2017-06-24T14:55:22.358Z,6.33
2017-06-24T14:57:50.046Z,7.90
2017-06-24T15:00:40.714Z,5.97
2017-06-24T15:03:11.526Z,8.47
2017-06-24T15:05:42.093Z,12.00
2017-06-24T15:08:10.779Z,7.40
2017-06-24T15:10:38.286Z,7.67
2017-06-24T15:13:05.836Z,6.37
2017-06-24T15:15:34.044Z,12.00
2017-06-24T15:18:21.173Z,7.10
2017-06-24T15:20:48.739Z,9.27
2017-06-24T15:23:32.191Z,5.80
2017-06-24T15:25:59.810Z,8.60
2017-06-24T15:28:27.434Z,5.60
2017-06-24T15:30:55.769Z,6.57
2017-06-24T15:33:24.274Z,6.37
2017-06-24T15:35:51.820Z,10.50
2017-06-24T15:38:35.637Z,7.27
2017-06-24T15:41:04.161Z,6.03
2017-06-24T15:43:31.674Z,14.63
2017-06-24T15:46:00.169Z,7.20
2017-06-24T15:48:37.385Z,9.70
2017-06-24T15:51:27.614Z,6.30
2017-06-24T15:54:02.569Z,6.80
2017-06-24T15:56:34.029Z,10.33
2017-06-24T15:59:01.541Z,6.57
2017-06-24T16:01:35.311Z,7.33
2017-06-24T16:04:15.446Z,8.53
2017-06-24T16:06:43.412Z,7.17
2017-06-24T16:09:19.310Z,7.17
2017-06-24T16:11:46.885Z,8.13
2017-06-24T16:14:14.666Z,9.23
2017-06-24T16:16:54.357Z,7.13
2017-06-24T16:19:25.861Z,6.83
2017-06-24T16:21:55.482Z,5.90
2017-06-24T16:24:26.051Z,13.30
2017-06-24T16:26:53.660Z,10.20
2017-06-24T16:29:32.142Z,7.97
2017-06-24T16:32:10.737Z,7.20
2017-06-24T16:34:38.439Z,7.70
2017-06-24T16:37:06.024Z,6.67
2017-06-24T16:39:39.728Z,6.10
2017-06-24T16:42:25.505Z,5.50
2017-06-24T16:44:54.269Z,8.30
2017-06-24T16:47:23.693Z,6.83
2017-06-24T16:50:02.146Z,7.50
2017-06-24T16:52:36.909Z,6.50
2017-06-24T16:55:14.809Z,6.67
2017-06-24T16:57:42.325Z,5.60
2017-06-24T17:00:14.869Z,5.90
2017-06-24T17:02:44.048Z,5.80
2017-06-24T17:05:12.750Z,6.50
2017-06-24T17:07:55.620Z,6.90
2017-06-24T17:10:28.011Z,7.60
2017-06-24T17:13:04.761Z,9.70
2017-06-24T17:15:33.263Z,5.63
2017-06-24T17:18:06.804Z,6.10
2017-06-24T17:20:36.222Z,6.73
2017-06-24T17:23:28.051Z,5.87
2017-06-24T17:25:55.860Z,7.13
2017-06-24T17:28:23.751Z,6.53
2017-06-24T17:30:53.467Z,6.23
2017-06-24T17:33:22.535Z,8.40
2017-06-24T17:35:54.323Z,6.80
2017-06-24T17:38:29.538Z,7.43
2017-06-24T17:41:05.033Z,7.90
2017-06-24T17:44:16.019Z,7.63
2017-06-24T17:46:53.138Z,7.30
2017-06-24T17:49:33.706Z,7.90
2017-06-24T17:52:08.299Z,7.00
2017-06-24T17:54:53.706Z,9.20
2017-06-24T17:57:34.593Z,10.77
2017-06-24T18:00:20.896Z,8.67
2017-06-24T18:02:52.363Z,8.63
2017-06-24T18:05:21.442Z,12.47
2017-06-24T18:07:53.600Z,8.60
2017-06-24T18:10:25.240Z,8.13
2017-06-24T18:12:59.687Z,7.17
2017-06-24T18:15:29.080Z,10.10
2017-06-24T18:18:08.696Z,8.83
2017-06-24T18:20:50.522Z,16.37
2017-06-24T18:23:18.628Z,8.53
2017-06-24T18:26:01.176Z,8.90
2017-06-24T18:28:38.225Z,9.10
2017-06-24T18:31:08.738Z,9.20
2017-06-24T18:33:37.218Z,9.43
2017-06-24T18:36:12.058Z,7.90
2017-06-24T18:38:39.573Z,10.03
2017-06-24T18:41:14.520Z,9.27
2017-06-24T18:43:42.596Z,10.73
2017-06-24T18:46:29.934Z,15.27
2017-06-24T18:48:59.747Z,11.40
2017-06-24T18:51:27.281Z,11.23
2017-06-24T18:53:54.853Z,9.70
2017-06-24T18:56:23.397Z,9.70
2017-06-24T18:58:50.932Z,9.93
2017-06-24T19:01:31.181Z,12.33
2017-06-24T19:03:59.608Z,9.50
2017-06-24T19:06:27.135Z,13.07
2017-06-24T19:08:57.137Z,13.67
2017-06-24T19:11:37.351Z,9.70
2017-06-24T19:14:12.670Z,10.47
2017-06-24T19:16:47.328Z,10.77
2017-06-24T19:19:18.944Z,11.57
2017-06-24T19:21:52.389Z,11.20
2017-06-24T19:24:19.986Z,19.10
2017-06-24T19:26:49.021Z,10.17
2017-06-24T19:29:24.105Z,12.00
2017-06-24T19:32:08.590Z,10.60
2017-06-24T19:34:51.087Z,10.30
2017-06-24T19:37:23.876Z,15.17
2017-06-24T19:39:54.501Z,11.90
2017-06-24T19:42:25.951Z,12.33
2017-06-24T19:45:09.438Z,10.83
2017-06-24T19:47:38.304Z,12.67
2017-06-24T19:50:05.913Z,14.73
2017-06-24T19:52:33.517Z,10.43
2017-06-24T19:55:01.084Z,11.87
2017-06-24T19:57:29.248Z,10.67
2017-06-24T19:59:57.009Z,11.53
2017-06-24T20:02:25.643Z,16.37
2017-06-24T20:04:55.995Z,11.60
2017-06-24T20:07:24.652Z,12.87
2017-06-24T20:09:52.196Z,13.63
2017-06-24T20:12:19.715Z,15.73
2017-06-24T20:15:03.214Z,10.83
2017-06-24T20:17:30.733Z,12.97
2017-06-24T20:19:59.742Z,11.70
2017-06-24T20:22:37.974Z,12.60
2017-06-24T20:25:10.891Z,15.80
2017-06-24T20:27:47.103Z,11.63
2017-06-24T20:30:38.135Z,14.63
2017-06-24T20:33:05.689Z,10.93
2017-06-24T20:35:34.960Z,12.50
2017-06-24T20:38:13.722Z,11.57
2017-06-24T20:40:49.365Z,11.50
2017-06-24T20:43:25.049Z,15.93
2017-06-24T20:45:54.240Z,11.00
2017-06-24T20:48:27.381Z,8.80
2017-06-24T20:50:56.054Z,12.60
2017-06-24T20:53:23.564Z,8.43
2017-06-24T20:55:51.163Z,9.60
2017-06-24T20:58:18.717Z,9.83
2017-06-24T21:00:47.772Z,9.60
2017-06-24T21:03:23.701Z,8.97
2017-06-24T21:05:51.214Z,8.70
2017-06-24T21:08:34.321Z,10.80
2017-06-24T21:11:09.630Z,22.50
2017-06-24T21:13:52.895Z,10.10
2017-06-24T21:16:20.514Z,10.27
2017-06-24T21:18:55.191Z,9.20
2017-06-24T21:21:37.745Z,9.30
2017-06-24T21:24:06.941Z,8.37
2017-06-24T21:26:34.451Z,9.47
2017-06-24T21:29:01.991Z,8.87
2017-06-24T21:31:29.559Z,15.13
2017-06-24T21:33:57.118Z,8.40
2017-06-24T21:36:25.004Z,11.27
2017-06-24T21:38:53.600Z,9.03
2017-06-24T21:41:22.053Z,11.70
2017-06-24T21:43:51.047Z,11.10
2017-06-24T21:46:19.110Z,8.60
2017-06-24T21:48:46.774Z,10.00
2017-06-24T21:51:15.275Z,11.20
2017-06-24T21:53:51.392Z,11.53
2017-06-24T21:56:18.905Z,13.00
2017-06-24T21:58:46.432Z,10.53
2017-06-24T22:01:15.878Z,9.57
2017-06-24T22:03:45.219Z,12.37
2017-06-24T22:06:15.421Z,9.87
2017-06-24T22:08:45.099Z,9.43
2017-06-24T22:11:12.632Z,9.33
2017-06-24T22:13:40.402Z,8.73
2017-06-24T22:16:07.969Z,12.77
2017-06-24T22:18:35.493Z,12.70
2017-06-24T22:21:04.820Z,11.20
2017-06-24T22:23:32.389Z,10.23
2017-06-24T22:25:59.917Z,11.97
2017-06-24T22:28:27.448Z,9.40
2017-06-24T22:31:03.750Z,9.70
2017-06-24T22:33:39.307Z,11.20
2017-06-24T22:36:07.150Z,12.97
2017-06-24T22:38:35.368Z,10.30
2017-06-24T22:41:02.935Z,9.00
2017-06-24T22:43:30.523Z,12.17
2017-06-24T22:45:58.098Z,8.70
2017-06-24T22:48:29.216Z,11.93
2017-06-24T22:50:58.262Z,10.00
2017-06-24T22:53:25.803Z,9.77
2017-06-24T22:55:54.157Z,12.97
2017-06-24T22:58:23.405Z,14.13
2017-06-24T23:00:54.650Z,10.70
2017-06-24T23:03:22.977Z,9.10
2017-06-24T23:05:50.584Z,20.57
2017-06-24T23:08:18.158Z,19.40
2017-06-24T23:10:48.865Z,22.57
2017-06-24T23:13:17.217Z,17.33
2017-06-24T23:15:44.786Z,12.70
2017-06-24T23:18:12.339Z,12.00
2017-06-24T23:20:39.891Z,13.93
2017-06-24T23:23:07.414Z,13.57
2017-06-24T23:25:34.938Z,12.80
2017-06-24T23:28:03.344Z,14.23
2017-06-24T23:30:40.739Z,14.57
2017-06-24T23:33:08.343Z,13.60
2017-06-24T23:35:37.413Z,14.30
2017-06-24T23:38:06.835Z,14.27
2017-06-24T23:40:34.369Z,14.27
2017-06-24T23:43:01.902Z,20.40
2017-06-24T23:45:29.448Z,20.73
2017-06-24T23:47:57.010Z,14.93
2017-06-24T23:50:24.545Z,18.33
2017-06-24T23:52:52.198Z,19.00
2017-06-24T23:55:19.727Z,18.63
2017-06-24T23:57:47.296Z,15.60
